sensor_id;sensor_type;location;lat;lon;timestamp;P1;durP1;ratioP1;P2;durP2;ratioP2
69381;SDS011;56560;50.692;12.844;2023-12-20T01:12:19;3.38;;;1.33;;
69381;SDS011;56560;50.692;12.844;2023-12-20T01:14:45;4.17;;;1.53;;
69381;SDS011;56560;50.692;12.844;2023-12-20T01:17:13;3.15;;;1.33;;
69381;SDS011;56560;50.692;12.844;2023-12-20T01:19:39;3.65;;;1.50;;
69381;SDS011;56560;50.692;12.844;2023-12-20T01:22:05;3.07;;;1.30;;
69381;SDS011;56560;50.692;12.844;2023-12-20T01:24:30;3.73;;;1.30;;
69381;SDS011;56560;50.692;12.844;2023-12-20T01:26:56;3.42;;;1.30;;
69381;SDS011;56560;50.692;12.844;2023-12-20T01:29:21;2.47;;;1.20;;
69381;SDS011;56560;50.692;12.844;2023-12-20T01:31:47;3.38;;;1.40;;
69381;SDS011;56560;50.692;12.844;2023-12-20T01:34:13;3.77;;;1.40;;
69381;SDS011;56560;50.692;12.844;2023-12-20T01:36:38;3.10;;;1.37;;
69381;SDS011;56560;50.692;12.844;2023-12-20T01:39:04;3.88;;;1.50;;
69381;SDS011;56560;50.692;12.844;2023-12-20T01:41:29;3.73;;;1.33;;
69381;SDS011;56560;50.692;12.844;2023-12-20T01:43:55;3.17;;;1.40;;
69381;SDS011;56560;50.692;12.844;2023-12-20T01:46:21;3.28;;;1.27;;
69381;SDS011;56560;50.692;12.844;2023-12-20T01:48:49;3.13;;;1.23;;
69381;SDS011;56560;50.692;12.844;2023-12-20T01:51:16;3.27;;;1.20;;
69381;SDS011;56560;50.692;12.844;2023-12-20T01:53:42;4.03;;;1.75;;
69381;SDS011;56560;50.692;12.844;2023-12-20T01:56:08;3.67;;;1.40;;
69381;SDS011;56560;50.692;12.844;2023-12-20T01:58:40;2.67;;;1.20;;
69381;SDS011;56560;50.692;12.844;2023-12-20T02:01:09;2.40;;;1.10;;
69381;SDS011;56560;50.692;12.844;2023-12-20T02:03:36;3.43;;;1.37;;
69381;SDS011;56560;50.692;12.844;2023-12-20T02:06:02;2.30;;;1.15;;
69381;SDS011;56560;50.692;12.844;2023-12-20T02:08:29;2.50;;;1.20;;
69381;SDS011;56560;50.692;12.844;2023-12-20T02:10:55;1.80;;;1.10;;
69381;SDS011;56560;50.692;12.844;2023-12-20T02:13:21;3.08;;;1.20;;
69381;SDS011;56560;50.692;12.844;2023-12-20T02:15:46;2.70;;;1.23;;
69381;SDS011;56560;50.692;12.844;2023-12-20T02:18:12;2.60;;;1.10;;
69381;SDS011;56560;50.692;12.844;2023-12-20T02:20:40;2.80;;;1.20;;
69381;SDS011;56560;50.692;12.844;2023-12-20T02:23:06;2.73;;;1.30;;
69381;SDS011;56560;50.692;12.844;2023-12-20T02:25:31;2.80;;;1.20;;
69381;SDS011;56560;50.692;12.844;2023-12-20T02:27:57;2.57;;;1.20;;
69381;SDS011;56560;50.692;12.844;2023-12-20T02:30:23;3.75;;;1.30;;
69381;SDS011;56560;50.692;12.844;2023-12-20T02:32:49;2.77;;;1.37;;
69381;SDS011;56560;50.692;12.844;2023-12-20T02:35:15;2.58;;;1.10;;
69381;SDS011;56560;50.692;12.844;2023-12-20T02:37:40;2.97;;;1.30;;
69381;SDS011;56560;50.692;12.844;2023-12-20T02:40:06;3.45;;;1.20;;
69381;SDS011;56560;50.692;12.844;2023-12-20T02:42:33;2.28;;;1.10;;
69381;SDS011;56560;50.692;12.844;2023-12-20T02:44:58;2.53;;;1.13;;
69381;SDS011;56560;50.692;12.844;2023-12-20T02:47:24;2.67;;;1.10;;
69381;SDS011;56560;50.692;12.844;2023-12-20T02:49:49;2.13;;;0.97;;
69381;SDS011;56560;50.692;12.844;2023-12-20T02:52:15;2.38;;;1.13;;
69381;SDS011;56560;50.692;12.844;2023-12-20T02:54:41;2.03;;;1.10;;
69381;SDS011;56560;50.692;12.844;2023-12-20T02:57:07;2.70;;;1.13;;
69381;SDS011;56560;50.692;12.844;2023-12-20T02:59:33;3.13;;;1.05;;
69381;SDS011;56560;50.692;12.844;2023-12-20T03:01:58;2.50;;;1.20;;
69381;SDS011;56560;50.692;12.844;2023-12-20T03:04:24;2.67;;;1.10;;
69381;SDS011;56560;50.692;12.844;2023-12-20T03:06:50;2.50;;;1.00;;
69381;SDS011;56560;50.692;12.844;2023-12-20T03:09:16;2.03;;;1.00;;
69381;SDS011;56560;50.692;12.844;2023-12-20T03:11:41;2.85;;;1.10;;
69381;SDS011;56560;50.692;12.844;2023-12-20T03:14:07;2.47;;;1.10;;
69381;SDS011;56560;50.692;12.844;2023-12-20T03:16:33;2.53;;;1.20;;
69381;SDS011;56560;50.692;12.844;2023-12-20T03:18:58;2.20;;;1.00;;
69381;SDS011;56560;50.692;12.844;2023-12-20T03:21:24;2.03;;;1.00;;
69381;SDS011;56560;50.692;12.844;2023-12-20T03:23:49;2.42;;;1.20;;
69381;SDS011;56560;50.692;12.844;2023-12-20T03:26:15;2.43;;;1.10;;
69381;SDS011;56560;50.692;12.844;2023-12-20T03:28:40;2.40;;;1.00;;
69381;SDS011;56560;50.692;12.844;2023-12-20T03:31:06;2.47;;;1.10;;
69381;SDS011;56560;50.692;12.844;2023-12-20T03:33:32;1.77;;;1.00;;
69381;SDS011;56560;50.692;12.844;2023-12-20T03:35:57;1.57;;;1.00;;
69381;SDS011;56560;50.692;12.844;2023-12-20T03:38:23;2.00;;;1.00;;
69381;SDS011;56560;50.692;12.844;2023-12-20T03:40:49;3.75;;;1.08;;
69381;SDS011;56560;50.692;12.844;2023-12-20T03:43:15;2.40;;;1.20;;
69381;SDS011;56560;50.692;12.844;2023-12-20T03:45:41;2.60;;;1.10;;
69381;SDS011;56560;50.692;12.844;2023-12-20T03:48:09;1.90;;;1.00;;
69381;SDS011;56560;50.692;12.844;2023-12-20T03:50:35;1.90;;;1.10;;
69381;SDS011;56560;50.692;12.844;2023-12-20T03:53:01;2.10;;;1.00;;
69381;SDS011;56560;50.692;12.844;2023-12-20T03:55:27;2.60;;;1.10;;
69381;SDS011;56560;50.692;12.844;2023-12-20T03:57:52;2.28;;;1.10;;
69381;SDS011;56560;50.692;12.844;2023-12-20T04:00:18;2.15;;;1.10;;
69381;SDS011;56560;50.692;12.844;2023-12-20T04:02:44;4.03;;;1.27;;
69381;SDS011;56560;50.692;12.844;2023-12-20T04:05:09;3.57;;;1.40;;
69381;SDS011;56560;50.692;12.844;2023-12-20T04:07:36;2.88;;;1.25;;
69381;SDS011;56560;50.692;12.844;2023-12-20T04:10:02;2.58;;;1.23;;
69381;SDS011;56560;50.692;12.844;2023-12-20T04:12:28;1.75;;;1.00;;
69381;SDS011;56560;50.692;12.844;2023-12-20T04:14:55;3.10;;;1.00;;
69381;SDS011;56560;50.692;12.844;2023-12-20T04:17:21;2.00;;;0.90;;
69381;SDS011;56560;50.692;12.844;2023-12-20T04:19:48;1.83;;;1.02;;
69381;SDS011;56560;50.692;12.844;2023-12-20T04:22:17;1.27;;;0.80;;
69381;SDS011;56560;50.692;12.844;2023-12-20T04:24:43;1.67;;;1.00;;
69381;SDS011;56560;50.692;12.844;2023-12-20T04:27:09;2.07;;;0.87;;
69381;SDS011;56560;50.692;12.844;2023-12-20T04:29:35;1.67;;;1.05;;
69381;SDS011;56560;50.692;12.844;2023-12-20T04:32:01;2.20;;;1.00;;
69381;SDS011;56560;50.692;12.844;2023-12-20T04:34:26;1.50;;;0.80;;
69381;SDS011;56560;50.692;12.844;2023-12-20T04:36:52;2.47;;;1.10;;
69381;SDS011;56560;50.692;12.844;2023-12-20T04:39:18;3.17;;;1.10;;
69381;SDS011;56560;50.692;12.844;2023-12-20T04:41:44;2.23;;;1.10;;
69381;SDS011;56560;50.692;12.844;2023-12-20T04:44:09;1.63;;;0.90;;
69381;SDS011;56560;50.692;12.844;2023-12-20T04:46:35;1.73;;;0.97;;
69381;SDS011;56560;50.692;12.844;2023-12-20T04:49:01;1.60;;;0.77;;
69381;SDS011;56560;50.692;12.844;2023-12-20T04:51:26;2.00;;;1.00;;
69381;SDS011;56560;50.692;12.844;2023-12-20T04:53:52;2.35;;;0.80;;
69381;SDS011;56560;50.692;12.844;2023-12-20T04:56:18;1.87;;;0.90;;
69381;SDS011;56560;50.692;12.844;2023-12-20T04:58:43;1.52;;;0.90;;
69381;SDS011;56560;50.692;12.844;2023-12-20T05:01:09;2.40;;;1.00;;
69381;SDS011;56560;50.692;12.844;2023-12-20T05:03:35;2.33;;;0.90;;
69381;SDS011;56560;50.692;12.844;2023-12-20T05:06:01;1.70;;;0.93;;
69381;SDS011;56560;50.692;12.844;2023-12-20T05:08:27;1.65;;;0.90;;
69381;SDS011;56560;50.692;12.844;2023-12-20T05:10:53;1.90;;;0.90;;
69381;SDS011;56560;50.692;12.844;2023-12-20T05:13:19;1.37;;;0.80;;
69381;SDS011;56560;50.692;12.844;2023-12-20T05:15:45;2.03;;;0.80;;
69381;SDS011;56560;50.692;12.844;2023-12-20T05:18:11;1.55;;;0.90;;
69381;SDS011;56560;50.692;12.844;2023-12-20T05:20:37;1.70;;;0.95;;
69381;SDS011;56560;50.692;12.844;2023-12-20T05:23:03;1.90;;;0.90;;
69381;SDS011;56560;50.692;12.844;2023-12-20T05:25:29;2.35;;;0.98;;
69381;SDS011;56560;50.692;12.844;2023-12-20T05:27:54;2.07;;;0.90;;
69381;SDS011;56560;50.692;12.844;2023-12-20T05:30:21;1.88;;;0.93;;
69381;SDS011;56560;50.692;12.844;2023-12-20T05:32:47;5.72;;;2.13;;
69381;SDS011;56560;50.692;12.844;2023-12-20T05:35:12;8.27;;;2.20;;
69381;SDS011;56560;50.692;12.844;2023-12-20T05:37:38;11.30;;;2.22;;
69381;SDS011;56560;50.692;12.844;2023-12-20T05:40:04;13.32;;;3.92;;
69381;SDS011;56560;50.692;12.844;2023-12-20T05:42:30;6.65;;;1.85;;
69381;SDS011;56560;50.692;12.844;2023-12-20T05:44:56;14.83;;;3.70;;
69381;SDS011;56560;50.692;12.844;2023-12-20T05:47:24;9.03;;;2.33;;
69381;SDS011;56560;50.692;12.844;2023-12-20T05:49:49;8.18;;;2.20;;
69381;SDS011;56560;50.692;12.844;2023-12-20T05:52:15;6.53;;;1.70;;
69381;SDS011;56560;50.692;12.844;2023-12-20T05:54:41;4.17;;;1.33;;
69381;SDS011;56560;50.692;12.844;2023-12-20T05:57:06;4.32;;;1.48;;
69381;SDS011;56560;50.692;12.844;2023-12-20T05:59:32;2.60;;;1.10;;
69381;SDS011;56560;50.692;12.844;2023-12-20T06:01:57;4.43;;;1.63;;
69381;SDS011;56560;50.692;12.844;2023-12-20T06:04:23;4.82;;;1.92;;
69381;SDS011;56560;50.692;12.844;2023-12-20T06:06:49;2.60;;;1.37;;
69381;SDS011;56560;50.692;12.844;2023-12-20T06:09:14;3.22;;;1.40;;
69381;SDS011;56560;50.692;12.844;2023-12-20T06:11:40;4.83;;;1.67;;
69381;SDS011;56560;50.692;12.844;2023-12-20T06:14:06;3.85;;;1.50;;
69381;SDS011;56560;50.692;12.844;2023-12-20T06:16:31;4.57;;;1.60;;
69381;SDS011;56560;50.692;12.844;2023-12-20T06:18:57;4.80;;;1.75;;
69381;SDS011;56560;50.692;12.844;2023-12-20T06:21:23;4.13;;;1.70;;
69381;SDS011;56560;50.692;12.844;2023-12-20T06:23:48;4.97;;;1.70;;
69381;SDS011;56560;50.692;12.844;2023-12-20T06:26:14;2.60;;;1.30;;
69381;SDS011;56560;50.692;12.844;2023-12-20T06:28:39;4.67;;;1.67;;
69381;SDS011;56560;50.692;12.844;2023-12-20T06:31:05;4.68;;;1.63;;
69381;SDS011;56560;50.692;12.844;2023-12-20T06:33:31;3.60;;;1.60;;
69381;SDS011;56560;50.692;12.844;2023-12-20T06:35:59;4.57;;;1.58;;
69381;SDS011;56560;50.692;12.844;2023-12-20T06:38:25;6.93;;;2.10;;
69381;SDS011;56560;50.692;12.844;2023-12-20T06:40:50;4.95;;;2.00;;
69381;SDS011;56560;50.692;12.844;2023-12-20T06:43:16;5.10;;;1.90;;
69381;SDS011;56560;50.692;12.844;2023-12-20T06:45:42;6.20;;;2.10;;
69381;SDS011;56560;50.692;12.844;2023-12-20T06:48:07;4.47;;;1.80;;
69381;SDS011;56560;50.692;12.844;2023-12-20T06:50:33;7.22;;;2.58;;
69381;SDS011;56560;50.692;12.844;2023-12-20T06:52:58;6.43;;;2.40;;
69381;SDS011;56560;50.692;12.844;2023-12-20T06:55:24;5.50;;;2.00;;
69381;SDS011;56560;50.692;12.844;2023-12-20T06:57:50;6.03;;;2.30;;
69381;SDS011;56560;50.692;12.844;2023-12-20T07:00:15;5.37;;;2.00;;
69381;SDS011;56560;50.692;12.844;2023-12-20T07:02:43;5.05;;;1.70;;
69381;SDS011;56560;50.692;12.844;2023-12-20T07:05:09;5.50;;;1.92;;
69381;SDS011;56560;50.692;12.844;2023-12-20T07:07:34;6.00;;;2.10;;
69381;SDS011;56560;50.692;12.844;2023-12-20T07:10:00;5.63;;;1.83;;
69381;SDS011;56560;50.692;12.844;2023-12-20T07:12:26;7.00;;;2.17;;
69381;SDS011;56560;50.692;12.844;2023-12-20T07:14:51;5.60;;;2.10;;
69381;SDS011;56560;50.692;12.844;2023-12-20T07:17:17;6.13;;;1.80;;
69381;SDS011;56560;50.692;12.844;2023-12-20T07:19:42;6.47;;;2.13;;
69381;SDS011;56560;50.692;12.844;2023-12-20T07:22:08;5.78;;;1.80;;
69381;SDS011;56560;50.692;12.844;2023-12-20T07:24:34;7.27;;;2.40;;
69381;SDS011;56560;50.692;12.844;2023-12-20T07:27:00;4.75;;;1.80;;
69381;SDS011;56560;50.692;12.844;2023-12-20T07:29:26;5.17;;;1.90;;
69381;SDS011;56560;50.692;12.844;2023-12-20T07:31:54;6.38;;;2.30;;
69381;SDS011;56560;50.692;12.844;2023-12-20T07:34:20;6.50;;;2.00;;
69381;SDS011;56560;50.692;12.844;2023-12-20T07:36:46;8.40;;;2.75;;
69381;SDS011;56560;50.692;12.844;2023-12-20T07:39:12;7.10;;;2.67;;
69381;SDS011;56560;50.692;12.844;2023-12-20T07:41:38;6.60;;;2.38;;
69381;SDS011;56560;50.692;12.844;2023-12-20T07:44:04;6.05;;;2.13;;
69381;SDS011;56560;50.692;12.844;2023-12-20T07:46:30;7.80;;;2.60;;
69381;SDS011;56560;50.692;12.844;2023-12-20T07:48:56;8.98;;;2.47;;
69381;SDS011;56560;50.692;12.844;2023-12-20T07:51:21;8.07;;;2.70;;
69381;SDS011;56560;50.692;12.844;2023-12-20T07:53:47;8.30;;;2.70;;
69381;SDS011;56560;50.692;12.844;2023-12-20T07:56:13;6.47;;;2.20;;
69381;SDS011;56560;50.692;12.844;2023-12-20T07:58:43;9.32;;;3.20;;
69381;SDS011;56560;50.692;12.844;2023-12-20T08:01:12;7.90;;;2.33;;
69381;SDS011;56560;50.692;12.844;2023-12-20T08:03:38;7.55;;;2.42;;
69381;SDS011;56560;50.692;12.844;2023-12-20T08:06:04;6.03;;;2.03;;
69381;SDS011;56560;50.692;12.844;2023-12-20T08:08:30;5.68;;;2.03;;
69381;SDS011;56560;50.692;12.844;2023-12-20T08:10:56;5.07;;;1.92;;
69381;SDS011;56560;50.692;12.844;2023-12-20T08:13:25;7.70;;;1.92;;
69381;SDS011;56560;50.692;12.844;2023-12-20T08:15:51;4.77;;;1.90;;
69381;SDS011;56560;50.692;12.844;2023-12-20T08:18:17;5.65;;;2.08;;
69381;SDS011;56560;50.692;12.844;2023-12-20T08:20:46;6.80;;;2.30;;
69381;SDS011;56560;50.692;12.844;2023-12-20T08:23:13;6.55;;;2.17;;
69381;SDS011;56560;50.692;12.844;2023-12-20T08:25:39;8.50;;;2.67;;
69381;SDS011;56560;50.692;12.844;2023-12-20T08:28:04;7.38;;;2.33;;
69381;SDS011;56560;50.692;12.844;2023-12-20T08:30:30;6.43;;;2.13;;
69381;SDS011;56560;50.692;12.844;2023-12-20T08:32:59;7.57;;;2.40;;
69381;SDS011;56560;50.692;12.844;2023-12-20T08:35:25;6.68;;;2.55;;
69381;SDS011;56560;50.692;12.844;2023-12-20T08:37:51;4.80;;;1.80;;
69381;SDS011;56560;50.692;12.844;2023-12-20T08:40:16;4.30;;;1.65;;
69381;SDS011;56560;50.692;12.844;2023-12-20T08:42:43;8.18;;;2.58;;
69381;SDS011;56560;50.692;12.844;2023-12-20T08:45:09;5.37;;;1.87;;
69381;SDS011;56560;50.692;12.844;2023-12-20T08:47:35;4.03;;;1.33;;
69381;SDS011;56560;50.692;12.844;2023-12-20T08:50:01;4.90;;;1.60;;
69381;SDS011;56560;50.692;12.844;2023-12-20T08:52:27;4.15;;;1.67;;
69381;SDS011;56560;50.692;12.844;2023-12-20T08:54:54;4.35;;;1.98;;
69381;SDS011;56560;50.692;12.844;2023-12-20T08:57:20;4.60;;;1.90;;
69381;SDS011;56560;50.692;12.844;2023-12-20T08:59:50;5.80;;;2.13;;
69381;SDS011;56560;50.692;12.844;2023-12-20T09:02:16;5.65;;;1.85;;
69381;SDS011;56560;50.692;12.844;2023-12-20T09:04:42;6.40;;;1.90;;
69381;SDS011;56560;50.692;12.844;2023-12-20T09:07:23;5.57;;;2.00;;
69381;SDS011;56560;50.692;12.844;2023-12-20T09:09:50;6.65;;;1.67;;
69381;SDS011;56560;50.692;12.844;2023-12-20T09:12:17;8.85;;;3.05;;
69381;SDS011;56560;50.692;12.844;2023-12-20T09:14:46;6.72;;;2.40;;
69381;SDS011;56560;50.692;12.844;2023-12-20T09:17:12;6.33;;;2.07;;
69381;SDS011;56560;50.692;12.844;2023-12-20T09:19:38;6.03;;;2.10;;
69381;SDS011;56560;50.692;12.844;2023-12-20T09:22:04;6.95;;;2.45;;
69381;SDS011;56560;50.692;12.844;2023-12-20T09:24:30;10.63;;;3.60;;
69381;SDS011;56560;50.692;12.844;2023-12-20T09:26:56;10.57;;;3.42;;
69381;SDS011;56560;50.692;12.844;2023-12-20T09:29:22;10.98;;;3.05;;
69381;SDS011;56560;50.692;12.844;2023-12-20T09:31:49;10.60;;;4.32;;
69381;SDS011;56560;50.692;12.844;2023-12-20T09:34:15;15.85;;;5.65;;
69381;SDS011;56560;50.692;12.844;2023-12-20T09:36:42;27.20;;;8.20;;
69381;SDS011;56560;50.692;12.844;2023-12-20T09:39:15;9.70;;;3.60;;
69381;SDS011;56560;50.692;12.844;2023-12-20T09:41:45;14.07;;;4.60;;
69381;SDS011;56560;50.692;12.844;2023-12-20T09:44:35;10.55;;;3.70;;
69381;SDS011;56560;50.692;12.844;2023-12-20T09:47:04;12.43;;;4.07;;
69381;SDS011;56560;50.692;12.844;2023-12-20T09:49:31;12.13;;;3.80;;
69381;SDS011;56560;50.692;12.844;2023-12-20T09:51:58;12.57;;;3.90;;
69381;SDS011;56560;50.692;12.844;2023-12-20T09:54:25;7.97;;;2.70;;
69381;SDS011;56560;50.692;12.844;2023-12-20T09:56:53;8.65;;;2.70;;
69381;SDS011;56560;50.692;12.844;2023-12-20T09:59:19;8.30;;;2.78;;
69381;SDS011;56560;50.692;12.844;2023-12-20T10:01:45;7.05;;;2.13;;
69381;SDS011;56560;50.692;12.844;2023-12-20T10:04:12;6.03;;;2.30;;
69381;SDS011;56560;50.692;12.844;2023-12-20T10:06:44;5.75;;;2.05;;
69381;SDS011;56560;50.692;12.844;2023-12-20T10:09:10;7.47;;;1.87;;
69381;SDS011;56560;50.692;12.844;2023-12-20T10:11:37;6.93;;;2.10;;
69381;SDS011;56560;50.692;12.844;2023-12-20T10:14:03;8.25;;;2.20;;
69381;SDS011;56560;50.692;12.844;2023-12-20T10:16:30;7.07;;;2.00;;
69381;SDS011;56560;50.692;12.844;2023-12-20T10:18:56;7.50;;;2.05;;
69381;SDS011;56560;50.692;12.844;2023-12-20T10:21:22;8.37;;;2.40;;
69381;SDS011;56560;50.692;12.844;2023-12-20T10:23:49;6.07;;;1.90;;
69381;SDS011;56560;50.692;12.844;2023-12-20T10:26:25;7.30;;;2.20;;
69381;SDS011;56560;50.692;12.844;2023-12-20T10:28:55;6.13;;;2.00;;
69381;SDS011;56560;50.692;12.844;2023-12-20T10:31:34;7.30;;;2.37;;
69381;SDS011;56560;50.692;12.844;2023-12-20T10:34:01;10.27;;;2.77;;
69381;SDS011;56560;50.692;12.844;2023-12-20T10:36:28;8.43;;;2.40;;
69381;SDS011;56560;50.692;12.844;2023-12-20T10:38:56;7.30;;;2.42;;
69381;SDS011;56560;50.692;12.844;2023-12-20T10:41:27;7.40;;;2.40;;
69381;SDS011;56560;50.692;12.844;2023-12-20T10:44:00;7.90;;;2.60;;
69381;SDS011;56560;50.692;12.844;2023-12-20T10:46:28;13.15;;;5.75;;
69381;SDS011;56560;50.692;12.844;2023-12-20T10:48:55;7.55;;;2.38;;
69381;SDS011;56560;50.692;12.844;2023-12-20T10:51:24;8.98;;;2.70;;
69381;SDS011;56560;50.692;12.844;2023-12-20T10:53:55;7.10;;;2.13;;
69381;SDS011;56560;50.692;12.844;2023-12-20T10:56:21;8.13;;;2.60;;
69381;SDS011;56560;50.692;12.844;2023-12-20T10:58:49;6.55;;;2.05;;
69381;SDS011;56560;50.692;12.844;2023-12-20T11:01:15;7.45;;;2.30;;
69381;SDS011;56560;50.692;12.844;2023-12-20T11:03:48;6.72;;;1.90;;
69381;SDS011;56560;50.692;12.844;2023-12-20T11:14:29;7.68;;;2.30;;
69381;SDS011;56560;50.692;12.844;2023-12-20T11:17:29;7.65;;;2.25;;
69381;SDS011;56560;50.692;12.844;2023-12-20T11:22:22;8.33;;;2.10;;
69381;SDS011;56560;50.692;12.844;2023-12-20T11:24:49;7.13;;;2.40;;
69381;SDS011;56560;50.692;12.844;2023-12-20T11:27:16;6.68;;;1.92;;
69381;SDS011;56560;50.692;12.844;2023-12-20T11:29:50;8.50;;;2.93;;
69381;SDS011;56560;50.692;12.844;2023-12-20T11:34:54;7.30;;;2.30;;
69381;SDS011;56560;50.692;12.844;2023-12-20T11:37:30;6.38;;;2.13;;
69381;SDS011;56560;50.692;12.844;2023-12-20T11:40:00;6.55;;;2.10;;
69381;SDS011;56560;50.692;12.844;2023-12-20T11:42:32;4.80;;;1.70;;
69381;SDS011;56560;50.692;12.844;2023-12-20T11:47:36;6.20;;;1.80;;
69381;SDS011;56560;50.692;12.844;2023-12-20T11:50:02;5.38;;;1.60;;
69381;SDS011;56560;50.692;12.844;2023-12-20T11:52:29;7.25;;;2.03;;
69381;SDS011;56560;50.692;12.844;2023-12-20T11:54:55;6.53;;;1.70;;
69381;SDS011;56560;50.692;12.844;2023-12-20T11:57:22;7.50;;;1.95;;
69381;SDS011;56560;50.692;12.844;2023-12-20T11:59:47;6.47;;;1.93;;
69381;SDS011;56560;50.692;12.844;2023-12-20T12:02:13;5.82;;;1.92;;
69381;SDS011;56560;50.692;12.844;2023-12-20T12:04:41;4.77;;;1.80;;
69381;SDS011;56560;50.692;12.844;2023-12-20T12:07:07;6.13;;;1.90;;
69381;SDS011;56560;50.692;12.844;2023-12-20T12:09:32;6.05;;;1.98;;
69381;SDS011;56560;50.692;12.844;2023-12-20T12:11:59;5.80;;;1.85;;
69381;SDS011;56560;50.692;12.844;2023-12-20T12:14:28;6.00;;;1.98;;
69381;SDS011;56560;50.692;12.844;2023-12-20T12:16:53;7.97;;;1.97;;
69381;SDS011;56560;50.692;12.844;2023-12-20T12:19:20;5.57;;;1.83;;
69381;SDS011;56560;50.692;12.844;2023-12-20T12:21:47;6.03;;;2.08;;
69381;SDS011;56560;50.692;12.844;2023-12-20T12:24:12;5.60;;;1.80;;
69381;SDS011;56560;50.692;12.844;2023-12-20T12:26:38;6.28;;;1.92;;
69381;SDS011;56560;50.692;12.844;2023-12-20T12:29:08;6.70;;;2.20;;
69381;SDS011;56560;50.692;12.844;2023-12-20T12:31:34;7.72;;;2.28;;
69381;SDS011;56560;50.692;12.844;2023-12-20T12:34:00;6.07;;;1.95;;
69381;SDS011;56560;50.692;12.844;2023-12-20T12:36:27;7.07;;;2.33;;
69381;SDS011;56560;50.692;12.844;2023-12-20T12:38:55;5.97;;;1.90;;
69381;SDS011;56560;50.692;12.844;2023-12-20T12:41:27;6.85;;;1.73;;
69381;SDS011;56560;50.692;12.844;2023-12-20T12:43:54;7.95;;;1.90;;
69381;SDS011;56560;50.692;12.844;2023-12-20T12:46:20;10.30;;;2.90;;
69381;SDS011;56560;50.692;12.844;2023-12-20T12:48:45;7.68;;;2.33;;
69381;SDS011;56560;50.692;12.844;2023-12-20T12:51:11;7.30;;;2.00;;
69381;SDS011;56560;50.692;12.844;2023-12-20T12:53:38;6.55;;;2.15;;
69381;SDS011;56560;50.692;12.844;2023-12-20T12:56:04;5.38;;;1.90;;
69381;SDS011;56560;50.692;12.844;2023-12-20T12:58:31;6.93;;;2.10;;
69381;SDS011;56560;50.692;12.844;2023-12-20T13:00:57;7.15;;;2.00;;
69381;SDS011;56560;50.692;12.844;2023-12-20T13:03:23;5.17;;;1.87;;
69381;SDS011;56560;50.692;12.844;2023-12-20T13:05:49;7.00;;;2.40;;
69381;SDS011;56560;50.692;12.844;2023-12-20T13:08:15;5.40;;;1.73;;
69381;SDS011;56560;50.692;12.844;2023-12-20T13:10:41;7.90;;;2.43;;
69381;SDS011;56560;50.692;12.844;2023-12-20T13:13:07;6.18;;;2.17;;
69381;SDS011;56560;50.692;12.844;2023-12-20T13:15:32;7.10;;;2.10;;
69381;SDS011;56560;50.692;12.844;2023-12-20T13:17:58;7.15;;;2.20;;
69381;SDS011;56560;50.692;12.844;2023-12-20T13:20:25;5.68;;;1.92;;
69381;SDS011;56560;50.692;12.844;2023-12-20T13:22:50;5.50;;;2.00;;
69381;SDS011;56560;50.692;12.844;2023-12-20T13:25:16;5.95;;;1.92;;
69381;SDS011;56560;50.692;12.844;2023-12-20T13:27:42;7.10;;;2.13;;
69381;SDS011;56560;50.692;12.844;2023-12-20T13:30:08;6.22;;;2.10;;
69381;SDS011;56560;50.692;12.844;2023-12-20T13:32:34;6.22;;;2.05;;
69381;SDS011;56560;50.692;12.844;2023-12-20T13:35:00;5.60;;;2.08;;
69381;SDS011;56560;50.692;12.844;2023-12-20T13:37:26;5.40;;;1.60;;
69381;SDS011;56560;50.692;12.844;2023-12-20T13:39:52;4.00;;;1.80;;
69381;SDS011;56560;50.692;12.844;2023-12-20T13:42:17;7.20;;;2.00;;
69381;SDS011;56560;50.692;12.844;2023-12-20T13:44:43;5.90;;;2.00;;
69381;SDS011;56560;50.692;12.844;2023-12-20T13:47:09;5.47;;;1.90;;
69381;SDS011;56560;50.692;12.844;2023-12-20T13:49:34;8.07;;;2.42;;
69381;SDS011;56560;50.692;12.844;2023-12-20T13:52:00;6.70;;;2.10;;
69381;SDS011;56560;50.692;12.844;2023-12-20T13:54:26;8.23;;;2.40;;
69381;SDS011;56560;50.692;12.844;2023-12-20T13:56:51;7.17;;;2.40;;
69381;SDS011;56560;50.692;12.844;2023-12-20T13:59:17;7.83;;;2.43;;
69381;SDS011;56560;50.692;12.844;2023-12-20T14:01:42;8.20;;;2.58;;
69381;SDS011;56560;50.692;12.844;2023-12-20T14:04:08;11.10;;;3.17;;
69381;SDS011;56560;50.692;12.844;2023-12-20T14:06:34;8.05;;;2.40;;
69381;SDS011;56560;50.692;12.844;2023-12-20T14:09:00;10.13;;;3.80;;
69381;SDS011;56560;50.692;12.844;2023-12-20T14:11:26;4.88;;;1.80;;
69381;SDS011;56560;50.692;12.844;2023-12-20T14:13:54;6.53;;;1.70;;
69381;SDS011;56560;50.692;12.844;2023-12-20T14:16:23;6.18;;;1.80;;
69381;SDS011;56560;50.692;12.844;2023-12-20T14:18:49;5.68;;;1.80;;
69381;SDS011;56560;50.692;12.844;2023-12-20T14:21:16;5.70;;;1.75;;
69381;SDS011;56560;50.692;12.844;2023-12-20T14:23:42;5.32;;;1.80;;
69381;SDS011;56560;50.692;12.844;2023-12-20T14:26:08;4.73;;;1.60;;
69381;SDS011;56560;50.692;12.844;2023-12-20T14:28:40;5.38;;;1.80;;
69381;SDS011;56560;50.692;12.844;2023-12-20T14:31:06;5.07;;;1.70;;
69381;SDS011;56560;50.692;12.844;2023-12-20T14:33:32;5.57;;;2.00;;
69381;SDS011;56560;50.692;12.844;2023-12-20T14:35:57;6.90;;;2.08;;
69381;SDS011;56560;50.692;12.844;2023-12-20T14:38:23;4.40;;;1.60;;
69381;SDS011;56560;50.692;12.844;2023-12-20T14:40:49;9.87;;;2.53;;
69381;SDS011;56560;50.692;12.844;2023-12-20T14:43:15;7.70;;;2.13;;
69381;SDS011;56560;50.692;12.844;2023-12-20T14:45:41;9.75;;;3.00;;
69381;SDS011;56560;50.692;12.844;2023-12-20T14:48:07;8.00;;;2.13;;
69381;SDS011;56560;50.692;12.844;2023-12-20T14:50:33;6.57;;;2.10;;
69381;SDS011;56560;50.692;12.844;2023-12-20T14:52:58;6.17;;;1.90;;
69381;SDS011;56560;50.692;12.844;2023-12-20T14:55:24;5.82;;;1.85;;
69381;SDS011;56560;50.692;12.844;2023-12-20T14:57:52;6.55;;;1.80;;
69381;SDS011;56560;50.692;12.844;2023-12-20T15:00:18;4.47;;;1.40;;
69381;SDS011;56560;50.692;12.844;2023-12-20T15:02:45;5.35;;;1.75;;
69381;SDS011;56560;50.692;12.844;2023-12-20T15:05:11;7.50;;;2.10;;
69381;SDS011;56560;50.692;12.844;2023-12-20T15:07:36;4.43;;;1.57;;
69381;SDS011;56560;50.692;12.844;2023-12-20T15:10:03;5.72;;;1.52;;
69381;SDS011;56560;50.692;12.844;2023-12-20T15:12:28;6.07;;;1.73;;
69381;SDS011;56560;50.692;12.844;2023-12-20T15:14:54;4.83;;;1.70;;
69381;SDS011;56560;50.692;12.844;2023-12-20T15:17:20;5.07;;;1.80;;
69381;SDS011;56560;50.692;12.844;2023-12-20T15:19:45;16.47;;;3.50;;
69381;SDS011;56560;50.692;12.844;2023-12-20T15:22:11;9.30;;;2.80;;
69381;SDS011;56560;50.692;12.844;2023-12-20T15:24:37;5.45;;;1.95;;
69381;SDS011;56560;50.692;12.844;2023-12-20T15:27:07;5.85;;;1.90;;
69381;SDS011;56560;50.692;12.844;2023-12-20T15:29:33;11.07;;;2.73;;
69381;SDS011;56560;50.692;12.844;2023-12-20T15:31:59;9.85;;;3.03;;
69381;SDS011;56560;50.692;12.844;2023-12-20T15:34:24;9.95;;;3.25;;
69381;SDS011;56560;50.692;12.844;2023-12-20T15:36:50;6.77;;;2.13;;
69381;SDS011;56560;50.692;12.844;2023-12-20T15:39:19;7.73;;;2.17;;
69381;SDS011;56560;50.692;12.844;2023-12-20T15:41:44;8.73;;;2.55;;
69381;SDS011;56560;50.692;12.844;2023-12-20T15:44:10;7.30;;;2.33;;
69381;SDS011;56560;50.692;12.844;2023-12-20T15:46:36;11.77;;;3.90;;
69381;SDS011;56560;50.692;12.844;2023-12-20T15:49:01;17.07;;;6.03;;
69381;SDS011;56560;50.692;12.844;2023-12-20T15:51:27;7.90;;;2.40;;
69381;SDS011;56560;50.692;12.844;2023-12-20T15:53:52;9.53;;;2.87;;
69381;SDS011;56560;50.692;12.844;2023-12-20T15:56:18;6.55;;;2.00;;